Time;durP1;ratioP1;P1;durP2;ratioP2;P2;SDS_P1;SDS_P2;PMS_P1;PMS_P2;Temp;Humidity;BMP_temperature;BMP_pressure;BME280_temperature;BME280_humidity;BME280_pressure;Samples;Min_cycle;Max_cycle;Signal;HPM_P1;HPM_P2
2022/04/13 00:00:16;;;;;;;;;0.25;0.25;;;;;18.23;51.77;100858.63;5061059;28;45422;-65
2022/04/13 00:02:42;;;;;;;;;1.50;1.00;;;;;18.19;51.39;100851.66;5062317;28;45686;-65
2022/04/13 00:05:09;;;;;;;;;0.50;0.50;;;;;18.18;51.50;100860.75;5061912;28;45420;-65
2022/04/13 00:07:35;;;;;;;;;0.25;0.25;;;;;18.14;51.98;100862.75;5061491;28;45459;-65
2022/04/13 00:10:01;;;;;;;;;1.25;0.00;;;;;18.11;52.17;100863.81;5058640;28;45386;-65
2022/04/13 00:12:26;;;;;;;;;0.75;0.75;;;;;18.12;52.39;100864.69;5052009;28;45927;-65
2022/04/13 00:14:52;;;;;;;;;0.50;0.50;;;;;18.07;52.02;100867.66;5062056;28;45317;-65
2022/04/13 00:17:17;;;;;;;;;1.00;0.75;;;;;18.06;52.25;100873.16;5061387;28;45411;-65
2022/04/13 00:19:43;;;;;;;;;0.75;0.75;;;;;18.04;52.13;100878.69;5061626;28;45267;-65
2022/04/13 00:22:08;;;;;;;;;0.75;0.75;;;;;18.02;51.98;100874.31;5061702;28;45340;-66
2022/04/13 00:24:33;;;;;;;;;1.00;1.00;;;;;18.04;51.98;100880.50;5058559;28;45401;-65
2022/04/13 00:26:59;;;;;;;;;0.00;0.00;;;;;18.07;52.16;100889.25;5044503;28;45322;-66
2022/04/13 00:29:25;;;;;;;;;0.75;0.75;;;;;18.08;52.01;100887.47;5058580;28;45323;-65
2022/04/13 00:31:53;;;;;;;;;0.75;0.75;;;;;18.06;52.65;100884.84;5060681;28;46131;-65
2022/04/13 00:34:19;;;;;;;;;2.25;1.25;;;;;18.05;52.29;100899.31;5060171;28;45400;-65
2022/04/13 00:36:44;;;;;;;;;0.00;0.00;;;;;17.98;52.38;100891.69;5060829;28;45278;-66
2022/04/13 00:39:09;;;;;;;;;3.00;1.75;;;;;18.00;52.21;100896.00;5061336;28;45370;-65
2022/04/13 00:41:35;;;;;;;;;0.75;0.75;;;;;18.02;52.44;100891.38;5061700;28;45443;-66
2022/04/13 00:44:07;;;;;;;;;1.75;0.75;;;;;18.01;52.59;100881.56;5059502;28;45235;-66
2022/04/13 00:46:33;;;;;;;;;1.00;0.75;;;;;18.03;52.55;100887.72;5052698;28;45272;-65
2022/04/13 00:49:00;;;;;;;;;1.50;0.75;;;;;18.03;52.45;100876.06;5061635;28;45540;-65
2022/04/13 00:51:26;;;;;;;;;1.75;1.00;;;;;17.99;52.81;100869.09;5060644;28;46828;-66
2022/04/13 00:53:52;;;;;;;;;1.25;1.25;;;;;18.02;52.89;100885.13;5061355;28;45398;-65
2022/04/13 00:56:23;;;;;;;;;1.75;1.75;;;;;17.91;52.79;100872.28;5061412;28;45276;-65
2022/04/13 00:58:52;;;;;;;;;1.00;1.00;;;;;17.92;53.01;100869.47;5061238;28;45465;-66
2022/04/13 01:01:19;;;;;;;;;0.25;0.25;;;;;17.94;53.00;100877.47;5061226;28;45385;-66
2022/04/13 01:03:44;;;;;;;;;1.50;1.25;;;;;17.93;53.21;100881.16;5061648;28;45560;-66
2022/04/13 01:06:10;;;;;;;;;1.25;1.25;;;;;17.96;53.21;100887.25;5060369;28;45273;-65
2022/04/13 01:08:38;;;;;;;;;1.00;0.75;;;;;17.96;53.14;100886.38;5061453;28;45435;-65
2022/04/13 01:11:03;;;;;;;;;1.00;1.00;;;;;17.95;53.46;100888.19;5048909;28;45482;-65
2022/04/13 01:13:29;;;;;;;;;2.00;1.25;;;;;17.90;52.96;100875.94;5059753;28;45326;-65
2022/04/13 01:15:55;;;;;;;;;2.00;1.25;;;;;17.93;53.23;100878.47;5072578;28;45413;-65
2022/04/13 01:18:20;;;;;;;;;1.75;1.75;;;;;17.88;53.28;100876.03;5047059;28;45248;-65
2022/04/13 01:20:54;;;;;;;;;0.75;0.75;;;;;17.87;53.58;100876.97;5060280;28;46035;-66
2022/04/13 01:23:23;;;;;;;;;0.50;0.50;;;;;17.78;53.32;100881.09;5060884;28;45627;-66
2022/04/13 01:25:49;;;;;;;;;1.50;1.50;;;;;17.83;53.69;100878.13;5048156;28;45344;-66
2022/04/13 01:28:16;;;;;;;;;3.00;1.50;;;;;17.85;53.61;100881.59;5060871;28;45752;-65
2022/04/13 01:30:41;;;;;;;;;0.75;0.75;;;;;17.85;53.15;100886.97;5060782;28;46466;-66
2022/04/13 01:33:06;;;;;;;;;2.00;2.00;;;;;17.86;53.27;100887.84;5060904;28;45329;-65
2022/04/13 01:35:32;;;;;;;;;2.50;1.50;;;;;17.87;53.82;100895.03;5039767;28;45445;-66
2022/04/13 01:37:58;;;;;;;;;0.75;0.50;;;;;17.85;53.70;100892.38;5060901;28;45267;-65
2022/04/13 01:40:23;;;;;;;;;1.75;1.50;;;;;17.86;53.92;100899.53;5060694;28;45548;-65
2022/04/13 01:42:49;;;;;;;;;3.25;0.75;;;;;17.85;53.76;100894.22;5060919;28;45211;-65
2022/04/13 01:45:19;;;;;;;;;1.75;0.25;;;;;17.88;54.00;100896.78;5057987;28;45377;-65
2022/04/13 01:47:49;;;;;;;;;0.75;0.75;;;;;17.87;54.19;100901.28;5060873;28;45280;-65
2022/04/13 01:50:19;;;;;;;;;1.75;1.75;;;;;17.86;54.21;100898.63;5060049;28;46066;-66
2022/04/13 01:52:46;;;;;;;;;2.50;1.00;;;;;17.84;53.92;100898.75;5060600;28;45463;-65
2022/04/13 01:55:11;;;;;;;;;1.75;1.75;;;;;17.83;54.15;100901.56;5057033;28;45398;-65
2022/04/13 01:57:38;;;;;;;;;2.50;2.50;;;;;17.83;54.15;100899.72;5060609;28;45239;-65
2022/04/13 02:00:06;;;;;;;;;4.50;2.00;;;;;17.83;54.78;100912.34;5058689;28;46198;-66
2022/04/13 02:02:32;;;;;;;;;3.00;1.25;;;;;17.73;54.44;100910.19;5060481;28;45337;-65
2022/04/13 02:04:58;;;;;;;;;1.50;1.50;;;;;17.71;54.75;100908.56;5059236;28;45499;-66
2022/04/13 02:07:23;;;;;;;;;2.25;2.25;;;;;17.71;54.66;100913.97;5067930;28;45446;-65
2022/04/13 02:09:49;;;;;;;;;2.75;2.50;;;;;17.63;55.21;100903.59;5058328;28;45396;-66
2022/04/13 02:12:14;;;;;;;;;2.25;2.25;;;;;17.59;55.27;100915.53;5048720;28;45316;-65
2022/04/13 02:14:40;;;;;;;;;3.25;3.00;;;;;17.55;55.06;100908.59;5054840;28;45315;-65
2022/04/13 02:17:05;;;;;;;;;2.25;2.25;;;;;17.50;55.42;100914.25;5060211;28;45547;-65
2022/04/13 02:19:31;;;;;;;;;2.50;1.50;;;;;17.47;55.17;100917.13;5059638;28;45342;-65
2022/04/13 02:21:56;;;;;;;;;4.25;1.50;;;;;17.49;55.30;100923.31;5059828;28;45337;-65
2022/04/13 02:24:21;;;;;;;;;1.25;1.25;;;;;17.44;55.71;100916.44;5057735;28;45295;-65
2022/04/13 02:26:47;;;;;;;;;1.75;1.25;;;;;17.46;55.49;100918.09;5048843;28;45290;-65
2022/04/13 02:29:12;;;;;;;;;2.50;2.50;;;;;17.49;55.80;100925.13;5059886;28;46103;-65
2022/04/13 02:31:37;;;;;;;;;1.50;1.50;;;;;17.46;55.57;100928.91;5060315;28;45247;-65
2022/04/13 02:34:04;;;;;;;;;3.50;3.50;;;;;17.46;55.84;100934.28;5059082;28;45423;-65
2022/04/13 02:36:31;;;;;;;;;2.75;1.50;;;;;17.48;55.62;100942.31;5059663;28;45401;-65
2022/04/13 02:38:56;;;;;;;;;3.25;2.25;;;;;17.49;55.86;100934.13;5059770;28;45357;-65
2022/04/13 02:41:22;;;;;;;;;2.75;2.75;;;;;17.49;56.02;100934.13;5060208;28;45450;-65
2022/04/13 02:43:47;;;;;;;;;1.50;1.50;;;;;17.47;55.68;100932.44;5058513;28;45232;-65
2022/04/13 02:46:12;;;;;;;;;4.50;3.50;;;;;17.50;56.05;100940.38;5054821;28;45515;-65
2022/04/13 02:48:38;;;;;;;;;3.00;2.50;;;;;17.52;56.15;100933.06;5075033;28;46332;-65
2022/04/13 02:51:04;;;;;;;;;3.50;3.50;;;;;17.47;56.09;100922.50;5059416;28;45342;-66
2022/04/13 02:53:30;;;;;;;;;2.50;2.50;;;;;17.49;56.43;100927.81;5058939;28;45260;-65
2022/04/13 02:55:56;;;;;;;;;3.00;2.25;;;;;17.49;56.37;100936.81;5060029;28;45334;-66
2022/04/13 02:58:21;;;;;;;;;1.75;1.75;;;;;17.48;56.39;100920.72;5063034;28;45365;-65
2022/04/13 03:00:47;;;;;;;;;2.75;2.25;;;;;17.51;56.09;100915.13;5063572;28;45263;-65
2022/04/13 03:03:12;;;;;;;;;3.50;2.50;;;;;17.52;56.47;100916.84;5062087;28;45288;-66
2022/04/13 03:05:38;;;;;;;;;2.25;2.25;;;;;17.43;56.59;100912.88;5062403;28;45286;-65
2022/04/13 03:08:05;;;;;;;;;4.00;3.50;;;;;17.51;56.45;100926.78;5062780;28;45237;-66
2022/04/13 03:10:31;;;;;;;;;4.25;1.50;;;;;17.48;56.21;100935.06;5055685;28;45493;-65
2022/04/13 03:12:56;;;;;;;;;3.00;2.50;;;;;17.52;56.67;100933.06;5052951;28;45328;-65
2022/04/13 03:15:23;;;;;;;;;3.75;2.75;;;;;17.52;56.40;100943.84;5057360;28;45492;-65
2022/04/13 03:17:49;;;;;;;;;0.75;0.75;;;;;17.52;56.81;100951.94;5062682;28;45651;-65
2022/04/13 03:20:14;;;;;;;;;3.25;2.00;;;;;17.53;56.93;100956.41;5071312;28;45232;-65
2022/04/13 03:22:39;;;;;;;;;1.50;1.50;;;;;17.51;57.24;100958.31;5062873;28;45315;-65
2022/04/13 03:25:05;;;;;;;;;3.75;3.50;;;;;17.49;57.54;100961.09;5057964;28;45250;-66
2022/04/13 03:27:30;;;;;;;;;3.50;2.75;;;;;17.44;57.61;100960.50;5055917;28;47423;-66
2022/04/13 03:29:56;;;;;;;;;3.25;3.25;;;;;17.42;57.81;100965.09;5062851;28;45290;-66
2022/04/13 03:32:21;;;;;;;;;3.75;3.75;;;;;17.40;57.67;100967.88;5062678;28;45202;-65
2022/04/13 03:34:46;;;;;;;;;4.00;3.25;;;;;17.38;57.99;100971.63;5061747;28;45209;-66
2022/04/13 03:37:12;;;;;;;;;4.00;2.25;;;;;17.37;58.05;100970.78;5062525;28;47784;-65
2022/04/13 03:39:37;;;;;;;;;4.75;2.50;;;;;17.34;58.49;100973.66;5062988;28;45267;-65
2022/04/13 03:42:03;;;;;;;;;4.50;3.75;;;;;17.30;58.66;100980.16;5062681;28;45240;-65
2022/04/13 03:44:29;;;;;;;;;5.50;3.75;;;;;17.29;58.64;100975.75;5059782;28;45422;-65
2022/04/13 03:46:54;;;;;;;;;4.25;4.00;;;;;17.26;58.90;100975.00;5062459;28;46303;-65
2022/04/13 03:49:20;;;;;;;;;2.75;2.75;;;;;17.25;59.36;100971.47;5062366;28;45333;-66
2022/04/13 03:51:46;;;;;;;;;5.25;5.25;;;;;17.25;59.43;100979.56;5062147;28;45345;-65
2022/04/13 03:54:11;;;;;;;;;3.25;3.25;;;;;17.20;59.72;100987.03;5061635;28;45430;-65
2022/04/13 03:56:37;;;;;;;;;8.50;7.00;;;;;17.13;60.00;100982.94;5047726;28;45474;-65
2022/04/13 03:59:05;;;;;;;;;5.50;4.25;;;;;17.13;59.41;100991.91;5062449;28;45385;-66
2022/04/13 04:01:31;;;;;;;;;5.00;5.00;;;;;17.12;60.33;100982.06;5062444;28;45309;-66
2022/04/13 04:03:57;;;;;;;;;5.50;4.50;;;;;17.11;60.16;100983.03;5062506;28;45483;-65
2022/04/13 04:06:23;;;;;;;;;5.00;5.00;;;;;17.13;60.19;100985.66;5060030;28;46145;-65
2022/04/13 04:08:50;;;;;;;;;8.25;7.50;;;;;17.14;60.29;100990.97;5049769;28;45442;-66
2022/04/13 04:11:16;;;;;;;;;7.75;5.50;;;;;17.15;60.32;100991.81;5048630;28;45513;-65
2022/04/13 04:13:41;;;;;;;;;7.00;5.00;;;;;17.10;60.53;100981.28;5062438;28;45293;-65
2022/04/13 04:16:07;;;;;;;;;6.25;5.00;;;;;17.12;60.56;100984.75;5046348;28;45471;-66
2022/04/13 04:18:32;;;;;;;;;5.00;5.00;;;;;17.12;60.48;100981.19;5050309;28;45425;-65
2022/04/13 04:20:57;;;;;;;;;3.00;2.50;;;;;17.16;60.99;101002.53;5061667;28;45387;-65
2022/04/13 04:23:23;;;;;;;;;3.50;3.50;;;;;17.13;60.48;101007.22;5062090;28;45334;-66
2022/04/13 04:25:48;;;;;;;;;6.00;5.00;;;;;17.14;60.67;101001.75;5050438;28;45674;-65
2022/04/13 04:28:14;;;;;;;;;4.00;4.00;;;;;17.16;61.23;101001.66;5061989;28;45414;-66
2022/04/13 04:30:41;;;;;;;;;4.50;4.50;;;;;17.14;61.23;101006.25;5061982;28;45154;-65
2022/04/13 04:33:06;;;;;;;;;5.75;5.75;;;;;17.16;61.20;101017.84;5061721;28;45588;-65
2022/04/13 04:35:33;;;;;;;;;5.00;4.00;;;;;17.14;61.23;101008.94;5060698;28;46258;-65
2022/04/13 04:37:59;;;;;;;;;5.75;5.75;;;;;17.15;61.14;101010.69;5061614;28;45461;-65
2022/04/13 04:40:25;;;;;;;;;6.00;6.00;;;;;17.15;61.50;101021.50;5061800;28;45347;-65
2022/04/13 04:42:51;;;;;;;;;5.00;3.75;;;;;17.12;61.59;101021.66;5061761;28;45735;-65
2022/04/13 04:45:19;;;;;;;;;4.75;4.75;;;;;17.10;61.50;101018.19;5060244;28;45445;-65
2022/04/13 04:47:45;;;;;;;;;7.25;5.25;;;;;17.12;61.65;101025.22;5061614;28;45303;-65
2022/04/13 04:50:11;;;;;;;;;4.00;4.00;;;;;17.08;61.80;101023.66;5061311;28;45240;-65
2022/04/13 04:52:43;;;;;;;;;7.00;5.50;;;;;17.11;61.66;101019.94;5061604;28;45484;-65
2022/04/13 04:55:10;;;;;;;;;7.25;6.25;;;;;17.09;61.72;101019.13;5058674;28;45257;-66
2022/04/13 04:57:37;;;;;;;;;7.00;6.00;;;;;17.07;62.02;101019.22;5061531;28;45524;-65
2022/04/13 05:00:09;;;;;;;;;7.00;7.00;;;;;17.07;61.98;101024.59;5061517;28;45305;-65
2022/04/13 05:02:37;;;;;;;;;7.50;5.75;;;;;17.08;62.10;101020.09;5061506;28;45399;-65
2022/04/13 05:05:04;;;;;;;;;12.25;7.00;;;;;17.04;62.60;101017.56;5060368;28;45441;-65
2022/04/13 05:07:30;;;;;;;;;6.00;6.00;;;;;17.04;62.35;101025.66;5060902;28;45517;-66
2022/04/13 05:09:55;;;;;;;;;5.25;5.25;;;;;17.04;62.28;101031.06;5058701;28;45354;-66
2022/04/13 05:12:20;;;;;;;;;6.25;6.00;;;;;17.00;62.40;101029.47;5050230;28;45268;-65
2022/04/13 05:14:46;;;;;;;;;6.00;5.25;;;;;17.02;62.01;101037.47;5059870;28;45240;-65
2022/04/13 05:17:11;;;;;;;;;5.00;5.00;;;;;17.03;62.47;101040.09;5061067;28;45364;-65
2022/04/13 05:19:37;;;;;;;;;9.00;7.25;;;;;17.03;62.24;101037.38;5060259;28;45371;-65
2022/04/13 05:22:02;;;;;;;;;6.00;6.00;;;;;17.04;62.45;101041.84;5070558;28;45332;-65
2022/04/13 05:24:28;;;;;;;;;6.75;6.75;;;;;17.03;62.40;101050.00;5060790;28;46976;-65
2022/04/13 05:26:53;;;;;;;;;6.00;6.00;;;;;17.04;62.89;101046.38;5043950;28;45495;-65
2022/04/13 05:29:21;;;;;;;;;9.50;7.50;;;;;16.99;62.47;101043.91;5057011;28;45330;-65
2022/04/13 05:31:47;;;;;;;;;7.75;7.00;;;;;16.98;62.43;101036.78;5061212;28;45480;-66
2022/04/13 05:34:12;;;;;;;;;8.00;6.75;;;;;16.93;62.56;101036.16;5060374;28;45458;-65
2022/04/13 05:36:37;;;;;;;;;9.00;7.00;;;;;16.96;62.72;101038.69;5059003;28;45277;-65
2022/04/13 05:39:03;;;;;;;;;8.00;8.00;;;;;16.95;62.31;101036.94;5051732;28;45232;-65
2022/04/13 05:41:28;;;;;;;;;9.25;7.00;;;;;16.99;62.68;101049.31;5060025;28;45504;-75
2022/04/13 05:43:53;;;;;;;;;7.75;5.50;;;;;16.96;62.94;101046.78;5059033;28;47067;-74
2022/04/13 05:46:19;;;;;;;;;8.75;8.75;;;;;16.95;63.12;101045.03;5055218;28;45424;-73
2022/04/13 05:48:45;;;;;;;;;10.50;9.75;;;;;16.96;63.04;101057.56;5056010;28;45303;-73
2022/04/13 05:51:10;;;;;;;;;10.25;10.25;;;;;16.89;63.08;101056.16;5060375;28;45319;-73
2022/04/13 05:53:36;;;;;;;;;10.00;9.75;;;;;16.85;63.12;101047.34;5075324;28;45532;-73
2022/04/13 05:56:03;;;;;;;;;9.50;9.50;;;;;16.90;62.83;101057.88;5053602;28;45522;-73
2022/04/13 05:58:28;;;;;;;;;9.75;8.75;;;;;16.88;63.19;101056.25;5054692;28;45383;-73
2022/04/13 06:00:54;;;;;;;;;9.50;8.00;;;;;16.91;63.28;101058.78;5059045;28;45481;-73
2022/04/13 06:03:22;;;;;;;;;9.50;9.50;;;;;16.90;63.50;101068.66;5059928;28;45894;-73
2022/04/13 06:05:47;;;;;;;;;9.50;8.25;;;;;16.89;63.29;101068.75;5049117;28;45484;-73
2022/04/13 06:08:14;;;;;;;;;8.75;7.50;;;;;16.88;63.29;101081.38;5052610;28;45530;-74
2022/04/13 06:10:39;;;;;;;;;12.75;12.75;;;;;16.90;63.64;101084.84;5060144;28;45754;-73
2022/04/13 06:13:04;;;;;;;;;10.00;8.75;;;;;16.87;63.76;101084.16;5057175;28;46663;-74
2022/04/13 06:15:31;;;;;;;;;10.25;9.00;;;;;16.83;63.97;101086.09;5055692;28;45248;-73
2022/04/13 06:17:57;;;;;;;;;10.75;10.00;;;;;16.78;64.04;101086.34;5060130;28;45375;-73
2022/04/13 06:20:23;;;;;;;;;12.50;12.50;;;;;16.80;64.03;101091.66;5058461;28;45435;-73
2022/04/13 06:22:48;;;;;;;;;12.00;10.25;;;;;16.74;64.00;101094.66;5051264;28;46199;-73
2022/04/13 06:25:13;;;;;;;;;13.75;12.50;;;;;16.72;64.10;101097.44;5052409;28;45883;-72
2022/04/13 06:27:40;;;;;;;;;13.00;12.00;;;;;16.68;64.27;101096.72;5058958;28;45757;-73
2022/04/13 06:30:07;;;;;;;;;13.00;12.00;;;;;16.68;64.50;101104.81;5056656;28;46257;-72
2022/04/13 06:32:37;;;;;;;;;12.75;12.75;;;;;16.63;64.68;101101.50;5057304;28;45452;-74
2022/04/13 06:35:04;;;;;;;;;9.50;9.00;;;;;16.60;64.60;101123.22;5059743;28;45485;-73
2022/04/13 06:37:30;;;;;;;;;13.00;12.00;;;;;16.59;64.91;101125.97;5070541;28;45402;-73
2022/04/13 06:39:55;;;;;;;;;10.50;10.50;;;;;16.51;65.15;101109.38;5054075;28;45473;-73
2022/04/13 06:42:22;;;;;;;;;13.75;11.75;;;;;16.49;65.37;101122.91;5042696;28;47501;-73
2022/04/13 06:44:54;;;;;;;;;13.25;13.00;;;;;16.47;65.42;101125.69;5050049;28;45332;-73
2022/04/13 06:47:20;;;;;;;;;12.25;10.00;;;;;16.50;65.29;101140.81;5053162;28;45338;-73
2022/04/13 06:49:47;;;;;;;;;12.00;9.75;;;;;16.53;65.49;101143.34;5056127;28;45273;-73
2022/04/13 06:52:13;;;;;;;;;13.25;11.50;;;;;16.50;65.66;101143.50;5044564;28;45251;-75
2022/04/13 06:54:38;;;;;;;;;11.50;11.50;;;;;16.49;65.43;101155.25;5047384;28;45460;-72
2022/04/13 06:57:03;;;;;;;;;14.25;12.75;;;;;16.46;65.80;101150.00;5047940;28;45714;-65
2022/04/13 06:59:29;;;;;;;;;13.75;10.00;;;;;16.48;65.65;101172.34;5043986;28;45227;-65
2022/04/13 07:01:55;;;;;;;;;12.00;11.00;;;;;16.48;65.64;101173.22;5049109;28;45388;-65
2022/04/13 07:04:20;;;;;;;;;13.50;11.00;;;;;16.54;65.71;101173.84;5057113;28;45542;-64
2022/04/13 07:06:45;;;;;;;;;11.75;10.00;;;;;16.58;65.74;101178.16;5042736;28;45357;-64
2022/04/13 07:09:11;;;;;;;;;11.25;11.25;;;;;16.59;65.57;101196.94;5038349;28;45365;-64
2022/04/13 07:11:36;;;;;;;;;11.75;11.00;;;;;16.60;65.43;101198.66;5053256;28;45512;-64
2022/04/13 07:14:01;;;;;;;;;12.00;12.00;;;;;16.63;66.01;101208.44;5048156;28;45504;-65
2022/04/13 07:16:27;;;;;;;;;13.00;10.00;;;;;16.60;65.58;101204.06;5056357;28;45642;-64
2022/04/13 07:18:52;;;;;;;;;12.00;11.25;;;;;16.64;65.51;101220.97;5058398;28;45432;-64
2022/04/13 07:21:18;;;;;;;;;14.00;11.75;;;;;16.63;66.00;101211.13;5077708;27;46865;-65
2022/04/13 07:23:43;;;;;;;;;17.50;15.00;;;;;16.64;66.02;101226.38;5047088;28;45458;-67
2022/04/13 07:26:08;;;;;;;;;12.50;11.00;;;;;16.61;66.07;101226.50;5054313;28;45584;-65
2022/04/13 07:28:34;;;;;;;;;13.75;13.50;;;;;16.57;66.15;101222.22;5055037;28;45475;-65
2022/04/13 07:30:59;;;;;;;;;12.50;12.25;;;;;16.50;66.09;101218.94;5056817;28;45444;-64
2022/04/13 07:33:24;;;;;;;;;14.50;12.50;;;;;16.55;66.00;101224.97;5045500;28;45306;-64
2022/04/13 07:35:50;;;;;;;;;13.50;11.00;;;;;16.56;66.09;101232.13;5058621;28;45383;-64
2022/04/13 07:38:15;;;;;;;;;11.00;11.00;;;;;16.57;66.24;101228.50;5057649;28;45508;-64
2022/04/13 07:40:40;;;;;;;;;10.00;10.00;;;;;16.54;66.37;101227.75;5048490;28;46113;-65
2022/04/13 07:43:07;;;;;;;;;12.75;10.75;;;;;16.47;66.42;101219.09;5041911;28;45521;-64
2022/04/13 07:45:32;;;;;;;;;15.50;13.25;;;;;16.42;66.42;101227.44;5053351;28;45477;-64
2022/04/13 07:47:58;;;;;;;;;11.25;9.50;;;;;16.40;66.39;101223.06;5053365;28;45671;-65
2022/04/13 07:50:23;;;;;;;;;10.00;9.00;;;;;16.42;66.42;101224.75;5055193;28;47381;-65
2022/04/13 07:52:49;;;;;;;;;11.00;10.50;;;;;16.44;66.55;101230.91;5054415;28;45594;-65
2022/04/13 07:55:14;;;;;;;;;11.75;11.00;;;;;16.46;66.42;101230.84;5042390;28;45331;-65
2022/04/13 07:57:40;;;;;;;;;13.75;12.00;;;;;16.43;66.59;101220.22;5055218;28;45422;-65
2022/04/13 08:00:09;;;;;;;;;12.75;11.75;;;;;16.44;66.18;101228.22;5060212;28;45565;-65
2022/04/13 08:02:35;;;;;;;;;11.25;11.00;;;;;16.46;66.29;101233.53;5069478;28;45614;-65
2022/04/13 08:05:01;;;;;;;;;9.25;9.25;;;;;16.50;66.23;101240.50;5051353;28;45629;-65
2022/04/13 08:07:26;;;;;;;;;13.25;11.00;;;;;16.51;66.39;101227.94;5061201;28;45814;-65
2022/04/13 08:09:52;;;;;;;;;12.00;11.25;;;;;16.55;66.35;101235.75;5046125;28;46192;-65
2022/04/13 08:12:17;;;;;;;;;10.00;10.00;;;;;16.56;66.14;101240.22;5050447;28;45393;-65
2022/04/13 08:14:46;;;;;;;;;8.50;8.50;;;;;16.45;65.66;101221.88;5058033;28;45263;-65
2022/04/13 08:17:12;;;;;;;;;8.00;8.00;;;;;16.50;65.88;101235.13;5043938;28;45669;-65
2022/04/13 08:19:38;;;;;;;;;7.75;7.00;;;;;16.48;65.42;101243.28;5056431;28;45387;-65
2022/04/13 08:22:03;;;;;;;;;8.75;8.75;;;;;16.51;66.26;101250.34;5050718;28;45495;-65
2022/04/13 08:24:29;;;;;;;;;9.00;7.25;;;;;16.46;66.14;101247.88;5056782;28;45675;-65
2022/04/13 08:26:54;;;;;;;;;8.00;6.50;;;;;16.47;65.77;101237.97;5060878;28;45458;-65
2022/04/13 08:29:20;;;;;;;;;7.50;7.50;;;;;16.49;65.92;101241.47;5061046;28;45419;-65
2022/04/13 08:31:45;;;;;;;;;10.50;9.00;;;;;16.49;66.04;101246.88;5059870;28;45456;-65
2022/04/13 08:34:10;;;;;;;;;9.25;7.75;;;;;16.48;66.62;101248.66;5059686;28;45283;-65
2022/04/13 08:36:35;;;;;;;;;8.75;8.75;;;;;16.47;66.42;101255.03;5062584;28;45404;-65
2022/04/13 08:39:01;;;;;;;;;9.75;8.75;;;;;16.53;66.37;101266.44;5050438;28;46280;-65
2022/04/13 08:41:38;;;;;;;;;9.00;9.00;;;;;16.54;66.54;101273.56;5057074;28;45341;-65
2022/04/13 08:44:10;;;;;;;;;11.75;10.50;;;;;16.54;66.67;101287.03;5060376;28;45486;-65
2022/04/13 08:46:39;;;;;;;;;10.00;9.00;;;;;16.54;66.57;101284.34;5060156;28;45492;-66
2022/04/13 08:49:09;;;;;;;;;10.00;8.00;;;;;16.51;66.46;101285.38;5060780;28;45890;-65
2022/04/13 08:51:38;;;;;;;;;8.00;7.75;;;;;16.52;66.67;101294.34;5051487;28;45407;-65
2022/04/13 08:54:20;;;;;;;;;9.00;9.00;;;;;16.45;66.74;101289.22;5049236;28;45442;-65
2022/04/13 08:56:48;;;;;;;;;10.75;8.50;;;;;16.44;66.57;101295.59;5060981;28;45415;-65
2022/04/13 08:59:38;;;;;;;;;7.50;6.50;;;;;16.47;66.75;101306.22;5057420;28;46082;-68
2022/04/13 09:02:32;;;;;;;;;10.00;9.50;;;;;16.48;66.83;101307.09;5060989;28;45402;-67
2022/04/13 09:05:00;;;;;;;;;11.00;11.00;;;;;16.50;67.20;101313.25;5058613;28;45596;-67
2022/04/13 09:07:30;;;;;;;;;10.75;9.00;;;;;16.43;66.92;101304.59;5060425;28;45243;-67
2022/04/13 09:10:00;;;;;;;;;11.25;9.00;;;;;16.44;67.00;101317.13;5059560;28;46021;-66
2022/04/13 09:12:30;;;;;;;;;10.50;10.50;;;;;16.42;67.44;101318.16;5070041;28;45263;-65
2022/04/13 09:14:57;;;;;;;;;11.50;10.00;;;;;16.40;67.51;101320.03;5055091;28;45369;-65
2022/04/13 09:17:26;;;;;;;;;13.00;11.25;;;;;16.33;67.25;101318.59;5060963;28;45428;-65
2022/04/13 09:19:52;;;;;;;;;8.00;7.75;;;;;16.30;67.31;101325.88;5052309;28;45396;-65
2022/04/13 09:22:19;;;;;;;;;10.00;8.75;;;;;16.30;67.41;101331.28;5075628;27;45188;-66
2022/04/13 09:24:45;;;;;;;;;12.75;12.50;;;;;16.31;67.93;101334.84;5085896;27;45356;-66
2022/04/13 09:27:12;;;;;;;;;13.75;11.75;;;;;16.26;67.89;101332.34;5054826;28;45528;-66
2022/04/13 09:29:37;;;;;;;;;10.25;10.00;;;;;16.28;67.84;101330.44;5046305;28;45455;-66
2022/04/13 09:32:03;;;;;;;;;16.75;14.50;;;;;16.32;68.27;101333.88;5058008;28;45626;-66
2022/04/13 09:34:28;;;;;;;;;13.75;13.75;;;;;16.38;67.56;101348.88;5059957;28;45307;-66
2022/04/13 09:36:55;;;;;;;;;17.00;15.25;;;;;16.40;68.25;101345.16;5057940;28;45288;-66
2022/04/13 09:39:21;;;;;;;;;15.50;15.25;;;;;16.38;67.99;101338.13;5059298;28;46384;-66
2022/04/13 09:41:46;;;;;;;;;18.75;15.75;;;;;16.36;67.92;101351.66;5054811;28;45496;-66
2022/04/13 09:44:15;;;;;;;;;18.75;16.00;;;;;16.36;67.94;101356.19;5049484;28;45344;-66
2022/04/13 09:46:42;;;;;;;;;17.00;15.00;;;;;16.36;68.08;101356.19;5052303;28;46786;-66
2022/04/13 09:49:12;;;;;;;;;12.25;12.25;;;;;16.37;68.02;101356.09;5051004;28;47401;-66
2022/04/13 09:51:38;;;;;;;;;17.50;15.75;;;;;16.33;67.95;101346.41;5059148;28;45181;-66
2022/04/13 09:54:08;;;;;;;;;16.25;16.25;;;;;16.31;68.04;101342.91;5056871;28;45494;-66
2022/04/13 09:56:47;;;;;;;;;18.00;16.25;;;;;16.28;68.13;101346.63;5046795;28;45364;-66
2022/04/13 09:59:23;;;;;;;;;15.50;14.75;;;;;16.28;68.16;101346.63;5074317;28;47297;-66
2022/04/13 10:01:49;;;;;;;;;14.50;13.00;;;;;16.28;68.07;101346.63;5046928;28;45577;-66
2022/04/13 10:04:24;;;;;;;;;15.25;13.75;;;;;16.29;68.27;101345.69;5058756;28;45784;-66
2022/04/13 10:06:50;;;;;;;;;13.25;13.25;;;;;16.33;68.46;101349.09;5057479;28;45885;-66
2022/04/13 10:09:15;;;;;;;;;17.00;14.25;;;;;16.34;68.35;101347.28;5059335;28;46118;-66
2022/04/13 10:12:02;;;;;;;;;16.00;14.25;;;;;16.32;68.55;101350.03;5058425;28;45359;-66
2022/04/13 10:14:27;;;;;;;;;16.75;15.00;;;;;16.34;68.51;101341.88;5055252;28;45477;-66
2022/04/13 10:16:56;;;;;;;;;15.50;15.00;;;;;16.37;68.28;101348.03;5052708;28;45381;-67
2022/04/13 10:19:22;;;;;;;;;0.00;0.00;;;;;16.37;68.35;101347.13;5054290;28;46149;-66
2022/04/13 10:21:49;;;;;;;;;19.00;16.75;;;;;16.33;68.28;101334.75;5057608;28;45210;-66
2022/04/13 10:24:21;;;;;;;;;14.00;13.00;;;;;16.39;68.45;101340.75;5058473;28;45421;-66
2022/04/13 10:27:10;;;;;;;;;16.50;15.00;;;;;16.40;68.24;101347.00;5059024;28;45549;-66
2022/04/13 10:29:37;;;;;;;;;12.25;12.00;;;;;16.37;68.24;101337.25;5052680;28;46200;-66
2022/04/13 10:32:04;;;;;;;;;15.25;14.00;;;;;16.46;67.91;101352.09;5057456;28;45411;-66
2022/04/13 10:34:34;;;;;;;;;13.00;12.25;;;;;16.50;68.03;101356.38;5074429;28;45429;-66
2022/04/13 10:37:00;;;;;;;;;14.00;13.00;;;;;16.49;68.36;101352.81;5057440;28;45590;-66
2022/04/13 10:39:26;;;;;;;;;11.50;11.50;;;;;16.55;68.17;101359.72;5046532;28;46135;-66
2022/04/13 10:41:52;;;;;;;;;12.00;12.00;;;;;16.60;68.10;101355.00;5055978;28;45513;-66
2022/04/13 10:44:26;;;;;;;;;10.75;9.75;;;;;16.63;68.07;101357.53;5057381;28;45490;-66
2022/04/13 10:46:54;;;;;;;;;11.75;11.75;;;;;16.66;67.73;101360.09;5046269;28;45328;-66
2022/04/13 10:49:28;;;;;;;;;12.50;9.75;;;;;16.67;67.92;101351.06;5057445;28;45321;-66
2022/04/13 10:51:55;;;;;;;;;10.75;10.25;;;;;16.71;67.90;101364.41;5057783;28;45483;-66
2022/04/13 10:54:24;;;;;;;;;9.50;8.25;;;;;16.73;68.16;101362.50;5057544;28;45636;-66
2022/04/13 10:56:56;;;;;;;;;13.25;10.25;;;;;16.73;67.71;101365.19;5057370;28;45445;-67
2022/04/13 10:59:44;;;;;;;;;13.50;11.50;;;;;16.66;67.86;101368.19;5057294;28;46272;-67
2022/04/13 11:02:36;;;;;;;;;12.25;12.25;;;;;16.66;68.01;101359.22;5043588;28;45518;-66
2022/04/13 11:05:02;;;;;;;;;17.50;14.00;;;;;16.69;68.12;101351.00;5055075;28;45489;-67
2022/04/13 11:07:28;;;;;;;;;13.25;13.25;;;;;16.70;68.04;101349.16;5053485;28;45419;-66
2022/04/13 11:09:58;;;;;;;;;16.00;14.50;;;;;16.73;67.84;101351.72;5049817;28;46112;-66
2022/04/13 11:12:26;;;;;;;;;12.75;12.00;;;;;16.74;67.34;101350.75;5048636;28;46976;-66
2022/04/13 11:14:54;;;;;;;;;12.25;11.75;;;;;16.76;67.19;101356.97;5052469;28;45839;-66
2022/04/13 11:17:20;;;;;;;;;11.75;10.50;;;;;16.82;67.13;101365.63;5039873;28;46982;-66